<?xml version='1.0' encoding='UTF-8'?><gpx version="1.1" creator="JPX - https://github.com/jenetics/jpx" xmlns="http://www.topografix.com/GPX/1/1"><trk><trkseg><trkpt lat="37.464942232367896" lon="14.073927779498186"><ele>557.9999999999999</ele><time>2026-04-15T07:26:07.002Z</time></trkpt><trkpt lat="37.46496591357771" lon="14.074003523469587"><ele>558.0</ele><time>2026-04-15T07:26:14.002Z</time></trkpt><trkpt lat="37.46499253239974" lon="14.074086069726093"><ele>558.0</ele><time>2026-04-15T07:26:26.002Z</time></trkpt><trkpt lat="37.46502937767684" lon="14.074159200318375"><ele>558.0</ele><time>2026-04-15T07:26:39.003Z</time></trkpt><trkpt lat="37.465053769895455" lon="14.074239826140639"><ele>558.0</ele><time>2026-04-15T07:26:52.001Z</time></trkpt><trkpt lat="37.46510634421206" lon="14.07428890973532"><ele>557.9999999999999</ele><time>2026-04-15T07:27:10.001Z</time></trkpt><trkpt lat="37.46515282946801" lon="14.074345100815599"><ele>558.0</ele><time>2026-04-15T07:27:26.001Z</time></trkpt><trkpt lat="37.465219211161255" lon="14.074331679715264"><ele>559.7142857142857</ele><time>2026-04-15T07:29:08.001Z</time></trkpt><trkpt lat="37.465291657152996" lon="14.074313357749897"><ele>561.4285714285714</ele><time>2026-04-15T07:29:22.001Z</time></trkpt><trkpt lat="37.465350082513574" lon="14.074278472244043"><ele>563.1428571428571</ele><time>2026-04-15T07:29:27.001Z</time></trkpt><trkpt lat="37.46541845815895" lon="14.074291320729321"><ele>564.8571428571429</ele><time>2026-04-15T07:29:37.001Z</time></trkpt><trkpt lat="37.46545092883055" lon="14.074363102043176"><ele>566.5714285714286</ele><time>2026-04-15T07:30:09.001Z</time></trkpt><trkpt lat="37.465513039705264" lon="14.074391991520748"><ele>568.2857142857142</ele><time>2026-04-15T07:30:19.002Z</time></trkpt><trkpt lat="37.4655455171524" lon="14.07446271970789"><ele>570.0</ele><time>2026-04-15T07:30:29.002Z</time></trkpt><trkpt lat="37.46548802061568" lon="14.07449716379921"><ele>570.0</ele><time>2026-04-15T07:31:09.001Z</time></trkpt><trkpt lat="37.46543109149203" lon="14.074441163402781"><ele>570.0</ele><time>2026-04-15T07:32:19.001Z</time></trkpt><trkpt lat="37.46542335136456" lon="14.074553185727941"><ele>570.0</ele><time>2026-04-15T07:32:53.001Z</time></trkpt><trkpt lat="37.46540486245374" lon="14.074646256298855"><ele>570.0</ele><time>2026-04-15T07:33:15Z</time></trkpt><trkpt lat="37.46538827408301" lon="14.074724995551753"><ele>570.0</ele><time>2026-04-15T07:33:30Z</time></trkpt><trkpt lat="37.465310152253245" lon="14.074747565975207"><ele>570.0</ele><time>2026-04-15T07:33:40Z</time></trkpt><trkpt lat="37.4652665619086" lon="14.074672448957916"><ele>570.0</ele><time>2026-04-15T07:34:07.001Z</time></trkpt><trkpt lat="37.46519860477173" lon="14.074650230274772"><ele>570.0</ele><time>2026-04-15T07:34:12.001Z</time></trkpt><trkpt lat="37.465190429942865" lon="14.074732909038948"><ele>570.0</ele><time>2026-04-15T07:34:45.001Z</time></trkpt><trkpt lat="37.46519362582023" lon="14.07481223139761"><ele>570.0</ele><time>2026-04-15T07:35:00.001Z</time></trkpt><trkpt lat="37.46520373349975" lon="14.074910157448693"><ele>570.0</ele><time>2026-04-15T07:35:43Z</time></trkpt><trkpt lat="37.465263377324476" lon="14.074866081826341"><ele>570.0</ele><time>2026-04-15T07:36:46.001Z</time></trkpt><trkpt lat="37.4653271162084" lon="14.07491879063235"><ele>570.0</ele><time>2026-04-15T07:36:51.001Z</time></trkpt><trkpt lat="37.46539701331312" lon="14.074936040305259"><ele>571.7142857142857</ele><time>2026-04-15T07:37:28Z</time></trkpt><trkpt lat="37.46541763826136" lon="14.075014704015413"><ele>573.4285714285714</ele><time>2026-04-15T07:39:11.001Z</time></trkpt><trkpt lat="37.46543265027302" lon="14.075093229895282"><ele>575.1428571428571</ele><time>2026-04-15T07:39:34.999Z</time></trkpt><trkpt lat="37.46546782350155" lon="14.075167142277879"><ele>576.8571428571429</ele><time>2026-04-15T07:39:46Z</time></trkpt><trkpt lat="37.46552884279602" lon="14.075198039338407"><ele>578.5714285714286</ele><time>2026-04-15T07:39:56Z</time></trkpt><trkpt lat="37.46559011756922" lon="14.07515958459268"><ele>580.2857142857142</ele><time>2026-04-15T07:40:16Z</time></trkpt><trkpt lat="37.465660706704476" lon="14.075114815391098"><ele>582.0</ele><time>2026-04-15T07:40:40.001Z</time></trkpt><trkpt lat="37.465697959763304" lon="14.075050865623897"><ele>582.5</ele><time>2026-04-15T07:41:32.999Z</time></trkpt><trkpt lat="37.46583550193053" lon="14.074978296296624"><ele>583.0</ele><time>2026-04-15T07:43:08.001Z</time></trkpt><trkpt lat="37.46583092266494" lon="14.074895599681904"><ele>583.5</ele><time>2026-04-15T07:43:16.001Z</time></trkpt><trkpt lat="37.465800080323554" lon="14.074809591615358"><ele>584.0</ele><time>2026-04-15T07:43:23.001Z</time></trkpt><trkpt lat="37.465843820689116" lon="14.074738801320436"><ele>584.5</ele><time>2026-04-15T07:43:37Z</time></trkpt><trkpt lat="37.46591159902149" lon="14.07475388099415"><ele>585.0</ele><time>2026-04-15T07:43:52Z</time></trkpt><trkpt lat="37.46596078299512" lon="14.074821217711188"><ele>585.0</ele><time>2026-04-15T07:44:00Z</time></trkpt><trkpt lat="37.46598163519325" lon="14.074901649694276"><ele>585.0</ele><time>2026-04-15T07:44:06Z</time></trkpt><trkpt lat="37.46602345932425" lon="14.074968110813082"><ele>585.0</ele><time>2026-04-15T07:44:11Z</time></trkpt><trkpt lat="37.4660497986044" lon="14.075054995183725"><ele>585.0</ele><time>2026-04-15T07:44:16Z</time></trkpt><trkpt lat="37.46608451931068" lon="14.07513003079271"><ele>585.0</ele><time>2026-04-15T07:44:21Z</time></trkpt><trkpt lat="37.46612734073601" lon="14.075200189275916"><ele>585.0</ele><time>2026-04-15T07:47:21.002Z</time></trkpt><trkpt lat="37.466148776757294" lon="14.075287549010975"><ele>585.0</ele><time>2026-04-15T07:47:28.002Z</time></trkpt><trkpt lat="37.46612225132313" lon="14.075364813812536"><ele>585.0</ele><time>2026-04-15T07:48:09.001Z</time></trkpt><trkpt lat="37.46606975330941" lon="14.075414200984087"><ele>585.0</ele><time>2026-04-15T07:48:15.001Z</time></trkpt><trkpt lat="37.46601707886467" lon="14.075467130862863"><ele>585.0</ele><time>2026-04-15T07:48:21.001Z</time></trkpt><trkpt lat="37.46595756688301" lon="14.075439003144263"><ele>585.0</ele><time>2026-04-15T07:48:29.001Z</time></trkpt><trkpt lat="37.46596897205404" lon="14.07535063354041"><ele>585.0</ele><time>2026-04-15T07:49:17.002Z</time></trkpt><trkpt lat="37.466022197171284" lon="14.07530104647302"><ele>585.0</ele><time>2026-04-15T07:49:31.002Z</time></trkpt><trkpt lat="37.46606310253949" lon="14.075212151788062"><ele>585.0</ele><time>2026-04-15T07:49:52.001Z</time></trkpt><trkpt lat="37.46599563329532" lon="14.075181483161266"><ele>585.0</ele><time>2026-04-15T07:49:59.001Z</time></trkpt><trkpt lat="37.46593106139994" lon="14.075215103015866"><ele>585.0</ele><time>2026-04-15T07:50:35.001Z</time></trkpt><trkpt lat="37.46587181410797" lon="14.075270488062827"><ele>585.0</ele><time>2026-04-15T07:50:55.001Z</time></trkpt><trkpt lat="37.465807817362894" lon="14.07527476511889"><ele>585.0</ele><time>2026-04-15T07:51:03.001Z</time></trkpt><trkpt lat="37.465731897459726" lon="14.075278969600841"><ele>585.0</ele><time>2026-04-15T07:51:08.001Z</time></trkpt><trkpt lat="37.46565635182016" lon="14.075269654375482"><ele>585.0</ele><time>2026-04-15T07:51:27.001Z</time></trkpt><trkpt lat="37.465639442655736" lon="14.075350584193261"><ele>585.0</ele><time>2026-04-15T07:51:39.002Z</time></trkpt><trkpt lat="37.465615449921685" lon="14.075431140318887"><ele>585.0</ele><time>2026-04-15T07:51:47.002Z</time></trkpt><trkpt lat="37.46557887929584" lon="14.075506810832458"><ele>585.0</ele><time>2026-04-15T07:51:56Z</time></trkpt><trkpt lat="37.465540551365635" lon="14.07557434091354"><ele>585.0</ele><time>2026-04-15T07:52:01Z</time></trkpt><trkpt lat="37.46551078189144" lon="14.075654420893619"><ele>585.0</ele><time>2026-04-15T07:54:01.002Z</time></trkpt><trkpt lat="37.46558027610267" lon="14.075639800960499"><ele>585.0</ele><time>2026-04-15T07:54:14Z</time></trkpt><trkpt lat="37.465644273163484" lon="14.075637291958502"><ele>585.0</ele><time>2026-04-15T07:54:33Z</time></trkpt><trkpt lat="37.46566306884056" lon="14.07571971909275"><ele>585.0</ele><time>2026-04-15T07:54:44.001Z</time></trkpt><trkpt lat="37.46560702680789" lon="14.07577338993126"><ele>585.0</ele><time>2026-04-15T07:54:50.001Z</time></trkpt><trkpt lat="37.465539997002104" lon="14.075764133226008"><ele>585.0</ele><time>2026-04-15T07:54:57.001Z</time></trkpt><trkpt lat="37.465479198977214" lon="14.075739100958533"><ele>585.0</ele><time>2026-04-15T07:55:09.001Z</time></trkpt><trkpt lat="37.46541979606273" lon="14.07569684276167"><ele>585.0</ele><time>2026-04-15T07:55:37.001Z</time></trkpt><trkpt lat="37.46534331714989" lon="14.07571878306494"><ele>585.0</ele><time>2026-04-15T07:55:44.001Z</time></trkpt><trkpt lat="37.46528684447868" lon="14.075769286327883"><ele>585.0</ele><time>2026-04-15T07:55:50.001Z</time></trkpt><trkpt lat="37.46524185489476" lon="14.07583114986683"><ele>585.0</ele><time>2026-04-15T07:55:56.001Z</time></trkpt><trkpt lat="37.46522541185025" lon="14.07591853630659"><ele>585.0</ele><time>2026-04-15T07:56:15Z</time></trkpt><trkpt lat="37.4651811976676" lon="14.075982206165763"><ele>585.0</ele><time>2026-04-15T07:56:40Z</time></trkpt><trkpt lat="37.465187037001314" lon="14.076070288525393"><ele>585.0</ele><time>2026-04-15T07:56:59Z</time></trkpt><trkpt lat="37.465130895388704" lon="14.07611774491218"><ele>585.0</ele><time>2026-04-15T07:57:28.001Z</time></trkpt><trkpt lat="37.465055968648144" lon="14.076124623773474"><ele>585.0</ele><time>2026-04-15T07:57:32.001Z</time></trkpt><trkpt lat="37.464993392652744" lon="14.076165235427414"><ele>585.0</ele><time>2026-04-15T07:58:00.001Z</time></trkpt><trkpt lat="37.4649267338371" lon="14.07617048253746"><ele>585.0</ele><time>2026-04-15T07:58:15.999Z</time></trkpt><trkpt lat="37.46490522505964" lon="14.076083531131196"><ele>585.0</ele><time>2026-04-15T07:58:40Z</time></trkpt><trkpt lat="37.4648929106821" lon="14.075995198608275"><ele>585.0</ele><time>2026-04-15T07:58:47Z</time></trkpt><trkpt lat="37.464867249291125" lon="14.07591703295422"><ele>585.0</ele><time>2026-04-15T07:59:03Z</time></trkpt><trkpt lat="37.464878478959356" lon="14.075838564714587"><ele>585.0</ele><time>2026-04-15T07:59:11Z</time></trkpt><trkpt lat="37.46493995828834" lon="14.075794885881034"><ele>585.0</ele><time>2026-04-15T07:59:24.001Z</time></trkpt><trkpt lat="37.465001849844015" lon="14.075825813407809"><ele>585.0</ele><time>2026-04-15T07:59:28.001Z</time></trkpt><trkpt lat="37.465008625531844" lon="14.07591377263118"><ele>585.0</ele><time>2026-04-15T07:59:34.001Z</time></trkpt><trkpt lat="37.46501513111321" lon="14.076010714979484"><ele>585.0</ele><time>2026-04-15T07:59:46.001Z</time></trkpt><trkpt lat="37.465073899866674" lon="14.075977197479034"><ele>585.0</ele><time>2026-04-15T07:59:57.001Z</time></trkpt><trkpt lat="37.465088933273464" lon="14.07588814960674"><ele>585.0</ele><time>2026-04-15T08:00:04.001Z</time></trkpt><trkpt lat="37.465083100531025" lon="14.075809084607272"><ele>585.0</ele><time>2026-04-15T08:00:09.001Z</time></trkpt><trkpt lat="37.46508232695647" lon="14.07572696882652"><ele>585.0</ele><time>2026-04-15T08:00:14.001Z</time></trkpt><trkpt lat="37.46509946251919" lon="14.075639423595149"><ele>585.0</ele><time>2026-04-15T08:00:21Z</time></trkpt><trkpt lat="37.46513562546386" lon="14.075568424536815"><ele>585.0</ele><time>2026-04-15T08:00:29Z</time></trkpt><trkpt lat="37.46515998721977" lon="14.075483871639682"><ele>584.5714285714286</ele><time>2026-04-15T08:00:36Z</time></trkpt><trkpt lat="37.46513153937762" lon="14.075400583229682"><ele>584.1428571428571</ele><time>2026-04-15T08:00:42Z</time></trkpt><trkpt lat="37.46510898135046" lon="14.075326323943411"><ele>583.7142857142857</ele><time>2026-04-15T08:00:51Z</time></trkpt><trkpt lat="37.46506772026339" lon="14.07524798309653"><ele>583.2857142857142</ele><time>2026-04-15T08:00:56Z</time></trkpt><trkpt lat="37.46505457829396" lon="14.075167202927076"><ele>582.8571428571428</ele><time>2026-04-15T08:01:03Z</time></trkpt><trkpt lat="37.464990527781836" lon="14.075106025903173"><ele>582.4285714285714</ele><time>2026-04-15T08:01:49.001Z</time></trkpt><trkpt lat="37.46494699946253" lon="14.075045435537348"><ele>582.0</ele><time>2026-04-15T08:02:02.001Z</time></trkpt><trkpt lat="37.4649252877604" lon="14.074962072895278"><ele>582.0</ele><time>2026-04-15T08:02:11.001Z</time></trkpt><trkpt lat="37.46487239797518" lon="14.074908459623018"><ele>582.0</ele><time>2026-04-15T08:02:28Z</time></trkpt><trkpt lat="37.46480098552665" lon="14.074860260115486"><ele>582.0</ele><time>2026-04-15T08:02:45Z</time></trkpt><trkpt lat="37.46477439723721" lon="14.074934845692647"><ele>582.0</ele><time>2026-04-15T08:02:49Z</time></trkpt><trkpt lat="37.46471827519345" lon="14.074979546066631"><ele>582.0</ele><time>2026-04-15T08:02:54Z</time></trkpt><trkpt lat="37.46466651171745" lon="14.07502531313638"><ele>582.0</ele><time>2026-04-15T08:03:25.001Z</time></trkpt><trkpt lat="37.46461907437603" lon="14.075086422771012"><ele>582.0</ele><time>2026-04-15T08:03:27.001Z</time></trkpt><trkpt lat="37.464560839721045" lon="14.075119157623273"><ele>582.0</ele><time>2026-04-15T08:03:31.001Z</time></trkpt><trkpt lat="37.464489551239694" lon="14.075124596680453"><ele>582.0</ele><time>2026-04-15T08:03:44.001Z</time></trkpt><trkpt lat="37.46445957486359" lon="14.075204138804807"><ele>582.0</ele><time>2026-04-15T08:03:53.001Z</time></trkpt><trkpt lat="37.46443744493047" lon="14.075294812388963"><ele>582.0</ele><time>2026-04-15T08:04:13.001Z</time></trkpt><trkpt lat="37.464484150621296" lon="14.0753613906997"><ele>582.0</ele><time>2026-04-15T08:04:37Z</time></trkpt><trkpt lat="37.46455030741073" lon="14.075377512375605"><ele>582.0</ele><time>2026-04-15T08:04:43Z</time></trkpt><trkpt lat="37.46461757907437" lon="14.075375557703927"><ele>582.0</ele><time>2026-04-15T08:04:49Z</time></trkpt><trkpt lat="37.464692751063616" lon="14.075360458429829"><ele>582.0</ele><time>2026-04-15T08:04:55Z</time></trkpt><trkpt lat="37.464755321899105" lon="14.075387166467289"><ele>582.0</ele><time>2026-04-15T08:04:59Z</time></trkpt><trkpt lat="37.46475154225669" lon="14.075473656552099"><ele>582.0</ele><time>2026-04-15T08:05:03Z</time></trkpt><trkpt lat="37.46475019248144" lon="14.075554062159782"><ele>582.0</ele><time>2026-04-15T08:05:08Z</time></trkpt><trkpt lat="37.46469895304892" lon="14.07561740560953"><ele>582.0</ele><time>2026-04-15T08:05:12Z</time></trkpt><trkpt lat="37.46463380130231" lon="14.075608626564994"><ele>582.0</ele><time>2026-04-15T08:05:16Z</time></trkpt><trkpt lat="37.464562444826086" lon="14.075640867855522"><ele>582.0</ele><time>2026-04-15T08:06:00.001Z</time></trkpt><trkpt lat="37.46449291624177" lon="14.075657104023154"><ele>581.4285714285714</ele><time>2026-04-15T08:06:10.001Z</time></trkpt><trkpt lat="37.464428247509474" lon="14.075663372304142"><ele>580.8571428571428</ele><time>2026-04-15T08:06:16.001Z</time></trkpt><trkpt lat="37.46437670294716" lon="14.075719510459313"><ele>580.2857142857142</ele><time>2026-04-15T08:06:28.002Z</time></trkpt><trkpt lat="37.46436673165368" lon="14.075801653134683"><ele>579.7142857142857</ele><time>2026-04-15T08:06:39Z</time></trkpt><trkpt lat="37.464349707105605" lon="14.075893130637363"><ele>579.1428571428571</ele><time>2026-04-15T08:07:12Z</time></trkpt><trkpt lat="37.46429479117732" lon="14.075844896888814"><ele>578.5714285714286</ele><time>2026-04-15T08:07:27.001Z</time></trkpt><trkpt lat="37.4643149667436" lon="14.075755745730836"><ele>578.0</ele><time>2026-04-15T08:07:36.001Z</time></trkpt><trkpt lat="37.46434071859966" lon="14.07567461862556"><ele>578.0</ele><time>2026-04-15T08:07:47.001Z</time></trkpt><trkpt lat="37.464313569378625" lon="14.075567701420894"><ele>578.0</ele><time>2026-04-15T08:08:26.001Z</time></trkpt><trkpt lat="37.46428285874328" lon="14.075494565874607"><ele>578.0</ele><time>2026-04-15T08:08:30.001Z</time></trkpt><trkpt lat="37.46422558934364" lon="14.075445455772565"><ele>578.0</ele><time>2026-04-15T08:08:38.002Z</time></trkpt><trkpt lat="37.4641619836377" lon="14.075440720058607"><ele>578.0</ele><time>2026-04-15T08:08:55.999Z</time></trkpt><trkpt lat="37.46409542319675" lon="14.075464982723519"><ele>578.0</ele><time>2026-04-15T08:09:24Z</time></trkpt><trkpt lat="37.46407946707339" lon="14.075544021062568"><ele>578.0</ele><time>2026-04-15T08:09:34Z</time></trkpt><trkpt lat="37.464088398877664" lon="14.075640892583625"><ele>578.0</ele><time>2026-04-15T08:09:56.001Z</time></trkpt><trkpt lat="37.464044178486844" lon="14.075698999944297"><ele>578.0</ele><time>2026-04-15T08:10:08.001Z</time></trkpt><trkpt lat="37.464052339106374" lon="14.075790868419782"><ele>578.0</ele><time>2026-04-15T08:10:21.001Z</time></trkpt><trkpt lat="37.46402737994585" lon="14.075868700419639"><ele>578.0</ele><time>2026-04-15T08:10:32.001Z</time></trkpt><trkpt lat="37.463966895873476" lon="14.075843701369545"><ele>578.0</ele><time>2026-04-15T08:10:40.001Z</time></trkpt><trkpt lat="37.46393201863803" lon="14.07577694325719"><ele>578.0</ele><time>2026-04-15T08:11:00Z</time></trkpt><trkpt lat="37.463923239373614" lon="14.07568503002881"><ele>578.0</ele><time>2026-04-15T08:11:07Z</time></trkpt><trkpt lat="37.46392616978244" lon="14.075600960921046"><ele>578.0</ele><time>2026-04-15T08:11:17Z</time></trkpt><trkpt lat="37.463911970529026" lon="14.075517395914556"><ele>578.0</ele><time>2026-04-15T08:11:33.001Z</time></trkpt><trkpt lat="37.4638883121063" lon="14.075438268824085"><ele>578.0</ele><time>2026-04-15T08:11:39.001Z</time></trkpt><trkpt lat="37.463856610205276" lon="14.075366173187158"><ele>578.0</ele><time>2026-04-15T08:11:48.001Z</time></trkpt><trkpt lat="37.46381914870066" lon="14.075280044852006"><ele>578.0</ele><time>2026-04-15T08:12:05.001Z</time></trkpt><trkpt lat="37.4638562840948" lon="14.075202827067857"><ele>578.0</ele><time>2026-04-15T08:12:12.001Z</time></trkpt><trkpt lat="37.46394882839987" lon="14.075217729266468"><ele>578.0</ele><time>2026-04-15T08:12:45.002Z</time></trkpt><trkpt lat="37.46403014722658" lon="14.075237446473416"><ele>578.0</ele><time>2026-04-15T08:13:11.001Z</time></trkpt><trkpt lat="37.464098873985385" lon="14.075253197256085"><ele>578.0</ele><time>2026-04-15T08:13:17.001Z</time></trkpt><trkpt lat="37.46417559404236" lon="14.07526112158575"><ele>578.0</ele><time>2026-04-15T08:13:24.001Z</time></trkpt><trkpt lat="37.46424839598613" lon="14.075255422144854"><ele>578.0</ele><time>2026-04-15T08:13:57.001Z</time></trkpt><trkpt lat="37.46429824308064" lon="14.075181109110039"><ele>578.0</ele><time>2026-04-15T08:14:04.001Z</time></trkpt><trkpt lat="37.464338456723986" lon="14.075119016202194"><ele>578.0</ele><time>2026-04-15T08:14:10.001Z</time></trkpt><trkpt lat="37.46429759494174" lon="14.075046370607664"><ele>578.0</ele><time>2026-04-15T08:14:40.002Z</time></trkpt><trkpt lat="37.46423204975104" lon="14.075039733434178"><ele>578.0</ele><time>2026-04-15T08:14:46.002Z</time></trkpt><trkpt lat="37.46414608358204" lon="14.074992319090509"><ele>578.0</ele><time>2026-04-15T08:14:51.002Z</time></trkpt><trkpt lat="37.46408766913122" lon="14.075030939789718"><ele>578.0</ele><time>2026-04-15T08:14:55.002Z</time></trkpt><trkpt lat="37.4640359955507" lon="14.0750774283337"><ele>578.0</ele><time>2026-04-15T08:15:01.002Z</time></trkpt><trkpt lat="37.463973464609396" lon="14.075101001892824"><ele>578.0</ele><time>2026-04-15T08:15:15.001Z</time></trkpt><trkpt lat="37.4639404929739" lon="14.075027809482682"><ele>578.0</ele><time>2026-04-15T08:15:24.001Z</time></trkpt><trkpt lat="37.46399340509229" lon="14.0749775088172"><ele>578.0</ele><time>2026-04-15T08:15:30.001Z</time></trkpt><trkpt lat="37.4640203689565" lon="14.074901661844386"><ele>578.0</ele><time>2026-04-15T08:15:51.001Z</time></trkpt><trkpt lat="37.46404957695027" lon="14.074827205911994"><ele>578.0</ele><time>2026-04-15T08:15:57.001Z</time></trkpt><trkpt lat="37.464084337798596" lon="14.074757121102854"><ele>578.0</ele><time>2026-04-15T08:16:02.001Z</time></trkpt><trkpt lat="37.46415387841221" lon="14.074762531618038"><ele>578.0</ele><time>2026-04-15T08:16:17.001Z</time></trkpt><trkpt lat="37.46421578472462" lon="14.074786396239237"><ele>578.0</ele><time>2026-04-15T08:16:30.001Z</time></trkpt><trkpt lat="37.46424113060189" lon="14.0748661055621"><ele>578.0</ele><time>2026-04-15T08:16:36.002Z</time></trkpt><trkpt lat="37.46427502057543" lon="14.074942482980898"><ele>578.0</ele><time>2026-04-15T08:16:41.002Z</time></trkpt><trkpt lat="37.46432233748348" lon="14.074998112834061"><ele>578.0</ele><time>2026-04-15T08:16:49.002Z</time></trkpt><trkpt lat="37.464389158414015" lon="14.075014534689654"><ele>578.0</ele><time>2026-04-15T08:16:54.002Z</time></trkpt><trkpt lat="37.46445107653618" lon="14.07503552001103"><ele>578.0</ele><time>2026-04-15T08:17:00.002Z</time></trkpt><trkpt lat="37.46451773727586" lon="14.07503536421011"><ele>578.0</ele><time>2026-04-15T08:17:05.002Z</time></trkpt><trkpt lat="37.46457947701276" lon="14.074995308330028"><ele>578.0</ele><time>2026-04-15T08:17:11.001Z</time></trkpt><trkpt lat="37.464602506721405" lon="14.074919437961702"><ele>578.0</ele><time>2026-04-15T08:17:16.001Z</time></trkpt><trkpt lat="37.464644302752745" lon="14.074839424054755"><ele>578.0</ele><time>2026-04-15T08:17:22.001Z</time></trkpt><trkpt lat="37.46459889616912" lon="14.074779375747474"><ele>576.8571428571429</ele><time>2026-04-15T08:17:43.001Z</time></trkpt><trkpt lat="37.464597906150374" lon="14.074678060098503"><ele>575.7142857142857</ele><time>2026-04-15T08:18:00.001Z</time></trkpt><trkpt lat="37.464578934505894" lon="14.07459854646418"><ele>574.5714285714286</ele><time>2026-04-15T08:18:06.001Z</time></trkpt><trkpt lat="37.4645697559963" lon="14.074503566628398"><ele>573.4285714285714</ele><time>2026-04-15T08:18:36.001Z</time></trkpt><trkpt lat="37.464618989498476" lon="14.074445250310967"><ele>572.2857142857143</ele><time>2026-04-15T08:18:42.001Z</time></trkpt><trkpt lat="37.46468296840589" lon="14.07438562501088"><ele>571.1428571428571</ele><time>2026-04-15T08:19:05.001Z</time></trkpt><trkpt lat="37.46473805078014" lon="14.074343674715129"><ele>570.0</ele><time>2026-04-15T08:19:10.001Z</time></trkpt><trkpt lat="37.46480794230182" lon="14.074316972650577"><ele>570.0</ele><time>2026-04-15T08:19:16.001Z</time></trkpt><trkpt lat="37.46487029453527" lon="14.074296780476754"><ele>570.0</ele><time>2026-04-15T08:19:20.001Z</time></trkpt><trkpt lat="37.4649275713169" lon="14.074254421597956"><ele>570.0</ele><time>2026-04-15T08:19:26.001Z</time></trkpt><trkpt lat="37.46498216374311" lon="14.074212494202474"><ele>570.0</ele><time>2026-04-15T08:19:32.001Z</time></trkpt><trkpt lat="37.46496898586007" lon="14.074134743720375"><ele>570.0</ele><time>2026-04-15T08:19:41.001Z</time></trkpt><trkpt lat="37.464929417301136" lon="14.074072982965772"><ele>558.0</ele><time>2026-04-15T08:19:50.001Z</time></trkpt></trkseg></trk></gpx>